createdAt,value
2019-02-16T00:02:23.366Z,5.85
2019-02-16T00:04:56.765Z,5.84
2019-02-16T00:07:29.954Z,5.83
2019-02-16T00:10:03.291Z,5.85
2019-02-16T00:12:37.645Z,5.88
2019-02-16T00:15:11.286Z,5.88
2019-02-16T00:17:44.309Z,5.74
2019-02-16T00:20:17.887Z,5.72
2019-02-16T00:22:50.951Z,5.72
2019-02-16T00:25:24.131Z,5.68
2019-02-16T00:27:57.288Z,5.65
2019-02-16T00:30:30.690Z,5.64
2019-02-16T00:33:03.921Z,5.64
2019-02-16T00:35:37.122Z,5.65
2019-02-16T00:38:10.312Z,5.63
2019-02-16T00:40:43.693Z,5.53
2019-02-16T00:43:17.110Z,5.53
2019-02-16T00:45:50.338Z,5.55
2019-02-16T00:48:23.744Z,5.61
2019-02-16T00:50:56.949Z,5.61
2019-02-16T00:53:30.192Z,5.61
2019-02-16T00:56:02.279Z,5.60
2019-02-16T00:58:34.051Z,5.61
2019-02-16T01:01:06.872Z,5.60
2019-02-16T01:03:40.304Z,5.59
2019-02-16T01:06:13.717Z,5.61
2019-02-16T01:08:47.078Z,5.66
2019-02-16T01:11:21.280Z,5.63
2019-02-16T01:13:54.729Z,5.60
2019-02-16T01:16:27.954Z,5.60
2019-02-16T01:19:01.282Z,5.60
2019-02-16T01:21:34.888Z,5.67
2019-02-16T01:24:08.280Z,5.67
2019-02-16T01:28:24.776Z,5.73
2019-02-16T01:30:57.967Z,5.73
2019-02-16T01:33:30.038Z,5.74
2019-02-16T01:36:02.065Z,5.70
2019-02-16T01:38:36.660Z,5.67
2019-02-16T01:41:09.960Z,5.65
2019-02-16T01:46:14.302Z,5.68
2019-02-16T01:48:47.705Z,5.59
2019-02-16T01:51:20.959Z,5.64
2019-02-16T01:53:54.370Z,5.60
2019-02-16T01:56:27.964Z,5.55
2019-02-16T01:58:59.887Z,5.48
2019-02-16T02:01:33.281Z,5.39
2019-02-16T02:04:06.701Z,5.32
2019-02-16T02:06:39.967Z,5.32
2019-02-16T02:09:13.927Z,5.29
2019-02-16T02:11:45.827Z,5.27
2019-02-16T02:14:19.417Z,5.28
2019-02-16T02:16:52.780Z,5.27
2019-02-16T02:19:26.298Z,5.19
2019-02-16T02:21:59.770Z,5.17
2019-02-16T02:24:33.143Z,5.17
2019-02-16T02:27:06.518Z,5.14
2019-02-16T02:29:39.947Z,5.09
2019-02-16T02:34:57.442Z,5.02
2019-02-16T02:37:31.135Z,4.92
2019-02-16T02:40:04.865Z,4.91
2019-02-16T02:42:38.304Z,4.95
2019-02-16T02:45:12.382Z,4.97
2019-02-16T02:47:45.964Z,5.00
2019-02-16T02:50:17.890Z,5.02
2019-02-16T02:52:51.301Z,5.06
2019-02-16T02:55:24.711Z,5.08
2019-02-16T02:57:57.969Z,5.05
2019-02-16T03:00:29.916Z,5.02
2019-02-16T03:03:03.277Z,5.08
2019-02-16T03:05:36.658Z,5.13
2019-02-16T03:08:10.149Z,5.13
2019-02-16T03:10:43.431Z,5.11
2019-02-16T03:13:16.968Z,5.07
2019-02-16T03:15:48.831Z,5.04
2019-02-16T03:18:22.302Z,5.03
2019-02-16T03:20:55.962Z,5.02
2019-02-16T03:23:27.874Z,5.02
2019-02-16T03:26:49.291Z,4.97
2019-02-16T03:29:41.301Z,5.02
2019-02-16T03:33:00.313Z,4.94
2019-02-16T03:36:14.407Z,4.95
2019-02-16T03:39:12.288Z,4.95
2019-02-16T03:41:45.745Z,4.93
2019-02-16T03:44:22.144Z,4.92
2019-02-16T03:46:56.433Z,4.87
2019-02-16T03:49:29.975Z,4.85
2019-02-16T03:52:01.709Z,4.83
2019-02-16T03:54:34.997Z,4.76
2019-02-16T03:57:07.134Z,4.74
2019-02-16T03:59:39.044Z,4.79
2019-02-16T04:02:11.142Z,4.73
2019-02-16T04:04:44.352Z,4.67
2019-02-16T04:07:17.810Z,4.56
2019-02-16T04:09:51.285Z,4.56
2019-02-16T04:12:24.694Z,4.54
2019-02-16T04:14:58.262Z,4.52
2019-02-16T04:17:31.297Z,4.51
2019-02-16T04:20:04.669Z,4.41
2019-02-16T04:22:37.955Z,4.41
2019-02-16T04:25:10.089Z,4.37
2019-02-16T04:27:42.033Z,4.32
2019-02-16T04:30:15.311Z,4.28
2019-02-16T04:32:48.801Z,4.21
2019-02-16T04:35:21.061Z,4.16
2019-02-16T04:37:53.048Z,4.08
2019-02-16T04:40:24.915Z,4.07
2019-02-16T04:42:58.139Z,4.09
2019-02-16T04:45:30.079Z,4.07
2019-02-16T04:48:02.057Z,4.10
2019-02-16T04:50:33.875Z,4.09
2019-02-16T04:53:07.279Z,4.06
2019-02-16T04:55:40.687Z,4.02
2019-02-16T04:58:13.892Z,4.02
2019-02-16T05:00:45.873Z,3.95
2019-02-16T05:03:19.251Z,3.95
2019-02-16T05:05:52.392Z,3.90
2019-02-16T05:08:25.767Z,3.88
2019-02-16T05:10:59.125Z,3.91
2019-02-16T05:13:32.684Z,3.90
2019-02-16T05:16:06.281Z,3.93
2019-02-16T05:18:39.741Z,3.92
2019-02-16T05:21:13.112Z,3.92
2019-02-16T05:23:45.066Z,3.97
2019-02-16T05:26:18.283Z,3.97
2019-02-16T05:28:52.651Z,4.01
2019-02-16T05:31:25.963Z,4.01
2019-02-16T05:33:58.022Z,4.01
2019-02-16T05:36:31.278Z,4.03
2019-02-16T05:39:05.506Z,3.96
2019-02-16T05:41:38.799Z,3.96
2019-02-16T05:44:12.280Z,3.94
2019-02-16T05:46:45.319Z,3.95
2019-02-16T05:49:17.294Z,3.95
2019-02-16T05:51:50.634Z,3.95
2019-02-16T05:54:24.012Z,3.95
2019-02-16T05:56:57.282Z,3.94
2019-02-16T05:59:29.287Z,3.91
2019-02-16T06:02:00.871Z,3.91
2019-02-16T06:04:34.129Z,3.90
2019-02-16T06:07:07.281Z,3.94
2019-02-16T06:09:41.674Z,4.21
2019-02-16T06:12:15.950Z,4.21
2019-02-16T06:14:49.282Z,4.51
2019-02-16T06:17:22.657Z,4.60
2019-02-16T06:19:57.606Z,4.60
2019-02-16T06:22:31.259Z,4.73
2019-02-16T06:25:10.631Z,5.03
2019-02-16T06:27:43.961Z,5.03
2019-02-16T06:30:15.876Z,4.81
2019-02-16T06:32:49.282Z,4.71
2019-02-16T06:35:28.530Z,4.65
2019-02-16T06:38:02.944Z,4.56
2019-02-16T06:40:35.877Z,4.52
2019-02-16T06:43:09.116Z,4.65
2019-02-16T06:45:41.072Z,4.68
2019-02-16T06:48:14.140Z,4.77
2019-02-16T06:50:47.701Z,4.83
2019-02-16T06:53:21.977Z,4.93
2019-02-16T06:56:01.282Z,4.90
2019-02-16T06:58:34.625Z,5.01
2019-02-16T07:01:07.957Z,5.16
2019-02-16T07:03:40.017Z,5.22
2019-02-16T07:06:13.130Z,5.36
2019-02-16T07:08:46.355Z,5.55
2019-02-16T07:11:19.695Z,5.84
2019-02-16T07:13:52.952Z,5.84
2019-02-16T07:16:39.781Z,5.94
2019-02-16T07:19:27.878Z,5.99
2019-02-16T07:24:42.359Z,6.60
2019-02-16T07:27:15.690Z,6.81
2019-02-16T07:29:48.950Z,7.21
2019-02-16T07:32:20.867Z,7.38
2019-02-16T07:36:15.556Z,7.90
2019-02-16T07:38:48.947Z,8.15
2019-02-16T07:41:22.272Z,8.97
2019-02-16T07:44:23.259Z,9.74
2019-02-16T07:47:01.592Z,9.74
2019-02-16T07:49:50.668Z,10.16
2019-02-16T07:52:40.281Z,10.53
2019-02-16T07:55:38.376Z,12.25
2019-02-16T07:58:16.473Z,12.25
2019-02-16T08:01:00.768Z,13.35
2019-02-16T08:03:52.582Z,14.45
2019-02-16T08:06:40.285Z,14.89
2019-02-16T08:09:20.641Z,15.63
2019-02-16T08:12:09.655Z,15.74
2019-02-16T08:15:07.435Z,15.74
2019-02-16T08:17:46.768Z,16.23
2019-02-16T08:20:37.277Z,16.36
2019-02-16T08:26:46.701Z,16.70
2019-02-16T08:29:50.676Z,17.00
2019-02-16T08:32:36.280Z,17.61
2019-02-16T08:35:35.296Z,18.86
2019-02-16T08:38:25.877Z,19.50
2019-02-16T08:41:23.797Z,19.50
2019-02-16T08:44:17.648Z,20.32
2019-02-16T08:50:19.300Z,23.22
2019-02-16T08:53:13.266Z,24.52
2019-02-16T08:56:17.388Z,25.04
2019-02-16T08:59:09.409Z,25.04
2019-02-16T09:02:10.449Z,25.55
2019-02-16T09:05:21.255Z,26.11
2019-02-16T09:08:09.600Z,25.74
2019-02-16T09:11:05.724Z,25.74
2019-02-16T09:14:06.785Z,25.04
2019-02-16T09:17:13.876Z,23.14
2019-02-16T09:20:11.473Z,23.72
2019-02-16T09:23:09.610Z,24.23
2019-02-16T09:26:04.623Z,23.89
2019-02-16T09:28:53.484Z,23.72
2019-02-16T09:31:39.344Z,23.47
2019-02-16T09:34:28.411Z,22.76
2019-02-16T09:37:29.311Z,22.76
2019-02-16T09:40:22.553Z,22.52
2019-02-16T09:43:26.943Z,22.33
2019-02-16T09:46:14.539Z,22.05
2019-02-16T09:49:12.356Z,21.48
2019-02-16T09:51:52.201Z,21.89
2019-02-16T09:54:45.732Z,21.89
2019-02-16T09:57:40.553Z,21.93
2019-02-16T10:00:41.791Z,21.98
2019-02-16T10:03:24.479Z,22.11
2019-02-16T10:06:16.477Z,21.91
2019-02-16T10:09:07.534Z,22.11
2019-02-16T10:11:59.705Z,22.57
2019-02-16T10:14:48.811Z,22.72
2019-02-16T10:17:40.615Z,22.84
2019-02-16T10:20:48.259Z,22.88
2019-02-16T10:23:38.978Z,22.62
2019-02-16T10:26:26.642Z,22.62
2019-02-16T10:29:20.358Z,22.63
2019-02-16T10:32:08.668Z,22.73
2019-02-16T10:35:09.876Z,22.62
2019-02-16T10:38:03.470Z,22.84
2019-02-16T10:41:04.823Z,23.40
2019-02-16T10:43:44.612Z,23.66
2019-02-16T10:46:45.931Z,23.73
2019-02-16T10:49:41.605Z,23.67
2019-02-16T10:52:46.126Z,23.68
2019-02-16T10:55:37.275Z,23.37
2019-02-16T10:58:35.346Z,23.86
2019-02-16T11:01:27.777Z,23.86
2019-02-16T11:04:18.268Z,24.62
2019-02-16T11:06:56.779Z,24.77
2019-02-16T11:09:37.877Z,25.12
2019-02-16T11:12:46.591Z,25.12
2019-02-16T11:15:42.645Z,25.82
2019-02-16T11:18:34.739Z,26.95
2019-02-16T11:21:20.288Z,27.93
2019-02-16T11:24:18.768Z,29.23
2019-02-16T11:27:10.779Z,29.23
2019-02-16T11:30:05.701Z,29.84
2019-02-16T11:32:57.724Z,30.26
2019-02-16T11:35:40.425Z,30.74
2019-02-16T11:38:36.872Z,31.41
2019-02-16T11:42:16.261Z,31.24
2019-02-16T11:44:58.447Z,30.03
2019-02-16T11:49:42.887Z,30.74
2019-02-16T11:52:34.683Z,31.07
2019-02-16T11:55:32.805Z,31.69
2019-02-16T11:58:24.676Z,30.82
2019-02-16T12:01:16.533Z,30.98
2019-02-16T12:04:01.811Z,30.52
2019-02-16T12:06:45.273Z,31.37
2019-02-16T12:09:36.398Z,31.48
2019-02-16T12:12:24.489Z,31.48
2019-02-16T12:15:23.277Z,31.81
2019-02-16T12:18:07.749Z,31.81
2019-02-16T12:21:13.483Z,32.04
2019-02-16T12:24:08.405Z,32.25
2019-02-16T12:27:00.577Z,32.74
2019-02-16T12:29:57.808Z,33.05
2019-02-16T12:32:46.261Z,33.49
2019-02-16T12:35:31.262Z,36.17
2019-02-16T12:38:19.940Z,36.17
2019-02-16T12:41:10.634Z,36.61
2019-02-16T12:44:05.552Z,35.96
2019-02-16T12:46:47.700Z,35.20
2019-02-16T12:50:45.283Z,37.10
2019-02-16T12:53:47.502Z,35.32
2019-02-16T12:56:33.532Z,35.32
2019-02-16T12:59:15.973Z,35.74
2019-02-16T13:02:26.346Z,36.38
2019-02-16T13:05:33.951Z,36.51
2019-02-16T13:08:13.887Z,37.68
2019-02-16T13:10:57.491Z,36.46
2019-02-16T13:13:51.300Z,36.46
2019-02-16T13:16:42.562Z,36.38
2019-02-16T13:19:37.625Z,36.05
2019-02-16T13:22:19.541Z,35.00
2019-02-16T13:25:08.336Z,36.00
2019-02-16T13:28:08.631Z,36.38
2019-02-16T13:30:59.294Z,34.83
2019-02-16T13:33:50.349Z,33.88
2019-02-16T13:36:35.871Z,31.74
2019-02-16T13:39:27.403Z,31.19
2019-02-16T13:42:05.917Z,27.97
2019-02-16T13:44:45.082Z,27.97
2019-02-16T13:47:36.300Z,30.78
2019-02-16T13:50:16.686Z,32.07
2019-02-16T13:52:57.273Z,32.07
2019-02-16T13:55:48.294Z,33.76
2019-02-16T13:58:38.279Z,33.94
2019-02-16T14:01:39.475Z,34.17
2019-02-16T14:04:23.714Z,34.17
2019-02-16T14:07:18.565Z,34.25
2019-02-16T14:10:10.523Z,33.95
2019-02-16T14:13:09.945Z,31.90
2019-02-16T14:16:07.941Z,30.34
2019-02-16T14:18:41.281Z,29.68
2019-02-16T14:21:14.652Z,28.72
2019-02-16T14:23:48.282Z,28.72
2019-02-16T14:26:21.682Z,28.14
2019-02-16T14:28:55.131Z,28.14
2019-02-16T14:31:28.873Z,27.15
2019-02-16T14:34:02.304Z,27.15
2019-02-16T14:36:35.749Z,26.65
2019-02-16T14:39:29.872Z,26.65
2019-02-16T14:42:03.504Z,25.99
2019-02-16T14:44:37.278Z,25.67
2019-02-16T14:47:10.423Z,25.60
2019-02-16T14:49:44.123Z,25.13
2019-02-16T14:52:17.649Z,24.05
2019-02-16T14:54:51.994Z,24.05
2019-02-16T14:57:26.539Z,24.24
2019-02-16T15:00:04.784Z,24.46
2019-02-16T15:02:39.725Z,24.63
2019-02-16T15:05:13.446Z,24.75
2019-02-16T15:07:47.286Z,24.65
2019-02-16T15:10:20.980Z,24.33
2019-02-16T15:12:54.551Z,24.33
2019-02-16T15:15:28.290Z,24.47
2019-02-16T15:18:03.742Z,24.45
2019-02-16T15:20:36.288Z,24.05
2019-02-16T15:23:11.398Z,23.13
2019-02-16T15:25:45.968Z,22.59
2019-02-16T15:28:19.930Z,22.59
2019-02-16T15:30:52.127Z,21.57
2019-02-16T15:33:25.677Z,21.57
2019-02-16T15:35:59.557Z,20.90
2019-02-16T15:38:33.283Z,20.41
2019-02-16T15:41:06.719Z,19.97
2019-02-16T15:43:40.941Z,19.97
2019-02-16T15:46:14.597Z,19.95
2019-02-16T15:48:48.933Z,19.74
2019-02-16T15:51:22.268Z,19.34
2019-02-16T15:53:55.627Z,19.30
2019-02-16T15:56:29.074Z,19.30
2019-02-16T16:01:30.707Z,19.16
2019-02-16T16:04:04.121Z,19.00
2019-02-16T16:06:38.293Z,18.76
2019-02-16T16:09:36.940Z,18.56
2019-02-16T16:12:37.661Z,18.46
2019-02-16T16:15:22.262Z,18.43
2019-02-16T16:18:23.284Z,18.13
2019-02-16T16:21:14.099Z,18.06
2019-02-16T16:24:06.281Z,17.93
2019-02-16T16:26:57.276Z,17.93
2019-02-16T16:29:48.283Z,17.68
2019-02-16T16:32:40.284Z,17.54
2019-02-16T16:35:35.117Z,17.29
2019-02-16T16:38:30.289Z,17.29
2019-02-16T16:41:28.718Z,16.97
2019-02-16T16:44:19.280Z,16.97
2019-02-16T16:47:10.276Z,16.78
2019-02-16T16:50:05.646Z,16.77
2019-02-16T16:52:51.105Z,16.77
2019-02-16T16:55:45.468Z,16.62
2019-02-16T16:58:43.532Z,16.32
2019-02-16T17:01:27.938Z,16.00
2019-02-16T17:04:17.413Z,15.67
2019-02-16T17:07:01.619Z,15.33
2019-02-16T17:09:57.150Z,15.33
2019-02-16T17:12:47.986Z,15.18
2019-02-16T17:15:39.637Z,14.90
2019-02-16T17:18:22.643Z,14.67
2019-02-16T17:21:14.682Z,14.41
2019-02-16T17:24:09.352Z,14.27
2019-02-16T17:27:13.562Z,14.19
2019-02-16T17:30:04.696Z,13.96
2019-02-16T17:33:00.273Z,13.62
2019-02-16T17:35:47.336Z,13.65
2019-02-16T17:39:42.137Z,13.92
2019-02-16T17:42:46.399Z,13.92
2019-02-16T17:45:44.654Z,14.05
2019-02-16T17:48:55.125Z,14.13
2019-02-16T17:51:55.747Z,14.03
2019-02-16T17:55:00.389Z,13.97
2019-02-16T17:57:38.802Z,14.04
2019-02-16T18:00:44.952Z,13.90
2019-02-16T18:03:42.739Z,13.82
2019-02-16T18:06:25.623Z,13.68
2019-02-16T18:09:26.882Z,13.71
2019-02-16T18:12:31.301Z,13.69
2019-02-16T18:15:30.279Z,13.51
2019-02-16T18:18:15.868Z,13.39
2019-02-16T18:21:12.702Z,13.39
2019-02-16T18:26:17.345Z,13.03
2019-02-16T18:29:00.736Z,13.03
2019-02-16T18:31:52.639Z,12.99
2019-02-16T18:35:00.312Z,12.96
2019-02-16T18:37:44.619Z,12.91
2019-02-16T18:40:42.282Z,12.94
2019-02-16T18:43:27.295Z,12.96
2019-02-16T18:46:25.382Z,12.96
2019-02-16T18:49:21.599Z,12.91
2019-02-16T18:52:12.302Z,12.77
2019-02-16T18:54:58.413Z,12.75
2019-02-16T18:57:53.400Z,12.80
2019-02-16T19:00:45.282Z,12.85
2019-02-16T19:03:32.551Z,12.81
2019-02-16T19:06:27.315Z,12.81
2019-02-16T19:09:16.941Z,12.71
2019-02-16T19:12:06.436Z,12.71
2019-02-16T19:15:07.734Z,12.63
2019-02-16T19:17:56.552Z,12.53
2019-02-16T19:20:51.345Z,12.46
2019-02-16T19:23:58.652Z,12.43
2019-02-16T19:26:56.348Z,12.43
2019-02-16T19:29:54.755Z,12.38
2019-02-16T19:32:35.637Z,12.33
2019-02-16T19:35:20.060Z,12.30
2019-02-16T19:38:15.357Z,12.33
2019-02-16T19:41:09.937Z,12.34
2019-02-16T19:44:11.094Z,12.37
2019-02-16T19:47:07.797Z,12.36
2019-02-16T19:50:11.947Z,12.26
2019-02-16T19:53:02.619Z,12.23
2019-02-16T19:55:49.532Z,12.24
2019-02-16T19:58:38.340Z,12.26
2019-02-16T20:01:21.904Z,12.25
2019-02-16T20:04:12.735Z,12.25
2019-02-16T20:06:59.269Z,12.23
2019-02-16T20:09:50.285Z,12.07
2019-02-16T20:12:48.341Z,11.98
2019-02-16T20:15:40.395Z,11.97
2019-02-16T20:18:32.283Z,11.83
2019-02-16T20:21:36.570Z,11.54
2019-02-16T20:24:40.780Z,11.27
2019-02-16T20:27:51.264Z,10.89
2019-02-16T20:30:46.947Z,10.71
2019-02-16T20:33:37.391Z,10.71
2019-02-16T20:36:28.679Z,10.61
2019-02-16T20:39:09.688Z,10.62
2019-02-16T20:42:01.568Z,10.50
2019-02-16T20:44:46.661Z,10.36
2019-02-16T20:47:32.886Z,10.37
2019-02-16T20:50:30.377Z,10.34
2019-02-16T20:53:25.474Z,10.34
2019-02-16T20:56:20.315Z,10.43
2019-02-16T20:59:10.950Z,10.76
2019-02-16T21:01:55.566Z,10.78
2019-02-16T21:04:57.966Z,10.78
2019-02-16T21:07:48.608Z,10.51
2019-02-16T21:10:52.602Z,10.51
2019-02-16T21:13:31.282Z,10.25
2019-02-16T21:16:33.671Z,9.88
2019-02-16T21:19:37.942Z,9.88
2019-02-16T21:22:32.943Z,9.65
2019-02-16T21:25:21.945Z,9.48
2019-02-16T21:28:16.675Z,9.29
2019-02-16T21:31:11.618Z,9.00
2019-02-16T21:34:05.715Z,9.00
2019-02-16T21:37:10.157Z,8.87
2019-02-16T21:39:58.290Z,8.73
2019-02-16T21:42:50.545Z,8.73
2019-02-16T21:45:32.532Z,8.62
2019-02-16T21:48:17.865Z,8.63
2019-02-16T21:51:15.712Z,8.71
2019-02-16T21:54:10.657Z,8.88
2019-02-16T21:57:01.273Z,9.11
2019-02-16T22:00:02.610Z,9.20
2019-02-16T22:02:58.341Z,9.19
2019-02-16T22:05:54.454Z,9.09
2019-02-16T22:09:04.954Z,9.00
2019-02-16T22:11:58.692Z,8.90
2019-02-16T22:14:32.129Z,8.87
2019-02-16T22:17:05.275Z,8.80
2019-02-16T22:19:38.271Z,8.73
2019-02-16T22:22:11.286Z,8.81
2019-02-16T22:24:44.675Z,8.81
2019-02-16T22:27:17.922Z,8.76
2019-02-16T22:32:38.676Z,8.56
2019-02-16T22:35:13.286Z,8.48
2019-02-16T22:37:46.380Z,8.45
2019-02-16T22:40:19.694Z,8.41
2019-02-16T22:42:52.971Z,8.36
2019-02-16T22:45:26.606Z,8.20
2019-02-16T22:48:01.269Z,8.20
2019-02-16T22:50:34.797Z,8.18
2019-02-16T22:53:08.295Z,8.19
2019-02-16T22:55:41.952Z,8.10
2019-02-16T22:58:13.984Z,8.10
2019-02-16T23:00:50.297Z,8.12
2019-02-16T23:03:23.946Z,8.11
2019-02-16T23:05:57.294Z,8.10
2019-02-16T23:08:30.888Z,8.12
2019-02-16T23:11:04.696Z,8.10
2019-02-16T23:13:38.285Z,8.06
2019-02-16T23:16:11.947Z,7.90
2019-02-16T23:18:45.342Z,7.87
2019-02-16T23:21:18.958Z,7.87
2019-02-16T23:23:52.314Z,7.83
2019-02-16T23:26:26.273Z,7.81
2019-02-16T23:28:59.297Z,7.74
2019-02-16T23:31:32.743Z,7.68
2019-02-16T23:34:06.285Z,7.59
2019-02-16T23:36:39.692Z,7.56
2019-02-16T23:39:14.281Z,7.56
2019-02-16T23:41:47.948Z,7.52
2019-02-16T23:44:21.321Z,7.52
2019-02-16T23:46:54.892Z,7.49
2019-02-16T23:49:27.015Z,7.47
2019-02-16T23:52:00.282Z,7.44
2019-02-16T23:54:33.604Z,7.39
2019-02-16T23:57:06.940Z,7.39
2019-02-16T23:59:40.292Z,7.28
